sensor_id;sensor_type;location;lat;lon;timestamp;P1;durP1;ratioP1;P2;durP2;ratioP2
35245;SDS011;21379;50.962;6.960;2023-02-19T00:01:36;6.22;;;2.70;;
35245;SDS011;21379;50.962;6.960;2023-02-19T00:04:05;4.38;;;2.50;;
35245;SDS011;21379;50.962;6.960;2023-02-19T00:06:35;5.00;;;3.08;;
35245;SDS011;21379;50.962;6.960;2023-02-19T00:09:02;4.32;;;2.75;;
35245;SDS011;21379;50.962;6.960;2023-02-19T00:11:29;5.43;;;2.90;;
35245;SDS011;21379;50.962;6.960;2023-02-19T00:13:59;5.28;;;3.30;;
35245;SDS011;21379;50.962;6.960;2023-02-19T00:16:29;7.50;;;3.55;;
35245;SDS011;21379;50.962;6.960;2023-02-19T00:18:57;10.52;;;3.15;;
35245;SDS011;21379;50.962;6.960;2023-02-19T00:21:25;4.40;;;2.88;;
35245;SDS011;21379;50.962;6.960;2023-02-19T00:23:54;6.20;;;3.45;;
35245;SDS011;21379;50.962;6.960;2023-02-19T00:26:22;9.77;;;3.80;;
35245;SDS011;21379;50.962;6.960;2023-02-19T00:28:49;10.23;;;4.03;;
35245;SDS011;21379;50.962;6.960;2023-02-19T00:31:19;4.88;;;3.05;;
35245;SDS011;21379;50.962;6.960;2023-02-19T00:33:49;5.93;;;2.90;;
35245;SDS011;21379;50.962;6.960;2023-02-19T00:36:17;6.03;;;3.42;;
35245;SDS011;21379;50.962;6.960;2023-02-19T00:38:44;3.35;;;2.05;;
35245;SDS011;21379;50.962;6.960;2023-02-19T00:41:12;4.63;;;2.60;;
35245;SDS011;21379;50.962;6.960;2023-02-19T00:43:46;5.60;;;2.72;;
35245;SDS011;21379;50.962;6.960;2023-02-19T00:46:14;4.35;;;2.33;;
35245;SDS011;21379;50.962;6.960;2023-02-19T00:48:42;5.18;;;3.08;;
35245;SDS011;21379;50.962;6.960;2023-02-19T00:51:10;5.90;;;2.50;;
35245;SDS011;21379;50.962;6.960;2023-02-19T00:53:37;4.13;;;2.47;;
35245;SDS011;21379;50.962;6.960;2023-02-19T00:56:05;6.68;;;2.90;;
35245;SDS011;21379;50.962;6.960;2023-02-19T00:58:32;3.58;;;2.20;;
35245;SDS011;21379;50.962;6.960;2023-02-19T01:01:00;4.65;;;2.60;;
35245;SDS011;21379;50.962;6.960;2023-02-19T01:03:27;6.75;;;3.35;;
35245;SDS011;21379;50.962;6.960;2023-02-19T01:05:53;8.88;;;3.88;;
35245;SDS011;21379;50.962;6.960;2023-02-19T01:08:22;6.13;;;3.50;;
35245;SDS011;21379;50.962;6.960;2023-02-19T01:10:48;6.45;;;3.13;;
35245;SDS011;21379;50.962;6.960;2023-02-19T01:13:15;6.80;;;3.30;;
35245;SDS011;21379;50.962;6.960;2023-02-19T01:15:42;2.90;;;2.22;;
35245;SDS011;21379;50.962;6.960;2023-02-19T01:18:09;4.10;;;2.65;;
35245;SDS011;21379;50.962;6.960;2023-02-19T01:20:37;5.97;;;2.72;;
35245;SDS011;21379;50.962;6.960;2023-02-19T01:23:05;4.10;;;2.35;;
35245;SDS011;21379;50.962;6.960;2023-02-19T01:25:33;8.40;;;3.40;;
35245;SDS011;21379;50.962;6.960;2023-02-19T01:28:02;4.32;;;3.03;;
35245;SDS011;21379;50.962;6.960;2023-02-19T01:30:29;6.15;;;2.97;;
35245;SDS011;21379;50.962;6.960;2023-02-19T01:32:58;7.75;;;3.72;;
35245;SDS011;21379;50.962;6.960;2023-02-19T01:35:25;6.40;;;3.58;;
35245;SDS011;21379;50.962;6.960;2023-02-19T01:37:52;11.32;;;3.97;;
35245;SDS011;21379;50.962;6.960;2023-02-19T01:40:19;9.02;;;3.85;;
35245;SDS011;21379;50.962;6.960;2023-02-19T01:42:47;6.40;;;3.42;;
35245;SDS011;21379;50.962;6.960;2023-02-19T01:45:22;5.40;;;2.72;;
35245;SDS011;21379;50.962;6.960;2023-02-19T01:47:52;9.32;;;4.45;;
35245;SDS011;21379;50.962;6.960;2023-02-19T01:50:23;6.68;;;3.40;;
35245;SDS011;21379;50.962;6.960;2023-02-19T01:52:53;5.38;;;3.65;;
35245;SDS011;21379;50.962;6.960;2023-02-19T01:55:20;6.38;;;3.40;;
35245;SDS011;21379;50.962;6.960;2023-02-19T01:57:50;5.72;;;2.70;;
35245;SDS011;21379;50.962;6.960;2023-02-19T02:00:20;7.05;;;3.33;;
35245;SDS011;21379;50.962;6.960;2023-02-19T02:02:49;5.97;;;3.45;;
35245;SDS011;21379;50.962;6.960;2023-02-19T02:05:20;5.82;;;2.85;;
35245;SDS011;21379;50.962;6.960;2023-02-19T02:07:54;6.47;;;3.40;;
35245;SDS011;21379;50.962;6.960;2023-02-19T02:10:39;9.30;;;4.28;;
35245;SDS011;21379;50.962;6.960;2023-02-19T02:13:08;7.70;;;3.80;;
35245;SDS011;21379;50.962;6.960;2023-02-19T02:15:36;7.82;;;3.92;;
35245;SDS011;21379;50.962;6.960;2023-02-19T02:18:09;7.75;;;3.45;;
35245;SDS011;21379;50.962;6.960;2023-02-19T02:20:50;11.02;;;4.50;;
35245;SDS011;21379;50.962;6.960;2023-02-19T02:23:34;10.02;;;4.00;;
35245;SDS011;21379;50.962;6.960;2023-02-19T02:26:30;11.32;;;4.25;;
35245;SDS011;21379;50.962;6.960;2023-02-19T02:29:27;10.15;;;3.92;;
35245;SDS011;21379;50.962;6.960;2023-02-19T02:32:14;9.23;;;4.38;;
35245;SDS011;21379;50.962;6.960;2023-02-19T02:34:46;9.70;;;4.05;;
35245;SDS011;21379;50.962;6.960;2023-02-19T02:37:18;8.93;;;3.97;;
35245;SDS011;21379;50.962;6.960;2023-02-19T02:39:44;10.27;;;4.78;;
35245;SDS011;21379;50.962;6.960;2023-02-19T02:42:12;13.40;;;4.60;;
35245;SDS011;21379;50.962;6.960;2023-02-19T02:44:56;10.75;;;4.82;;
35245;SDS011;21379;50.962;6.960;2023-02-19T02:47:58;8.75;;;4.35;;
35245;SDS011;21379;50.962;6.960;2023-02-19T02:50:28;7.38;;;4.03;;
35245;SDS011;21379;50.962;6.960;2023-02-19T02:53:00;9.63;;;3.60;;
35245;SDS011;21379;50.962;6.960;2023-02-19T02:55:50;8.35;;;3.88;;
35245;SDS011;21379;50.962;6.960;2023-02-19T02:58:19;6.57;;;3.72;;
35245;SDS011;21379;50.962;6.960;2023-02-19T03:00:52;9.27;;;4.15;;
35245;SDS011;21379;50.962;6.960;2023-02-19T03:03:41;7.72;;;3.55;;
35245;SDS011;21379;50.962;6.960;2023-02-19T03:06:10;10.57;;;3.72;;
35245;SDS011;21379;50.962;6.960;2023-02-19T03:08:42;7.40;;;4.28;;
35245;SDS011;21379;50.962;6.960;2023-02-19T03:11:13;9.93;;;4.57;;
35245;SDS011;21379;50.962;6.960;2023-02-19T03:13:58;8.93;;;4.50;;
35245;SDS011;21379;50.962;6.960;2023-02-19T03:16:51;12.43;;;4.65;;
35245;SDS011;21379;50.962;6.960;2023-02-19T03:19:41;7.28;;;3.67;;
35245;SDS011;21379;50.962;6.960;2023-02-19T03:22:11;8.35;;;3.55;;
35245;SDS011;21379;50.962;6.960;2023-02-19T03:24:44;7.72;;;3.78;;
35245;SDS011;21379;50.962;6.960;2023-02-19T03:27:33;10.35;;;4.88;;
35245;SDS011;21379;50.962;6.960;2023-02-19T03:30:04;7.80;;;3.90;;
35245;SDS011;21379;50.962;6.960;2023-02-19T03:32:38;10.93;;;4.60;;
35245;SDS011;21379;50.962;6.960;2023-02-19T03:35:08;8.60;;;4.20;;
35245;SDS011;21379;50.962;6.960;2023-02-19T03:37:40;11.68;;;5.10;;
35245;SDS011;21379;50.962;6.960;2023-02-19T03:40:10;10.38;;;4.43;;
35245;SDS011;21379;50.962;6.960;2023-02-19T03:42:38;8.95;;;4.53;;
35245;SDS011;21379;50.962;6.960;2023-02-19T03:45:18;10.73;;;4.50;;
35245;SDS011;21379;50.962;6.960;2023-02-19T03:47:53;7.90;;;3.90;;
35245;SDS011;21379;50.962;6.960;2023-02-19T03:50:27;9.82;;;5.00;;
35245;SDS011;21379;50.962;6.960;2023-02-19T03:53:01;12.65;;;5.05;;
35245;SDS011;21379;50.962;6.960;2023-02-19T03:55:36;10.43;;;5.28;;
35245;SDS011;21379;50.962;6.960;2023-02-19T03:58:09;11.38;;;4.95;;
35245;SDS011;21379;50.962;6.960;2023-02-19T04:00:41;8.45;;;4.63;;
35245;SDS011;21379;50.962;6.960;2023-02-19T04:03:17;12.13;;;6.20;;
35245;SDS011;21379;50.962;6.960;2023-02-19T04:08:19;9.65;;;4.10;;
35245;SDS011;21379;50.962;6.960;2023-02-19T04:10:48;11.25;;;5.50;;
35245;SDS011;21379;50.962;6.960;2023-02-19T04:13:18;9.73;;;3.88;;
35245;SDS011;21379;50.962;6.960;2023-02-19T04:15:47;11.45;;;5.10;;
35245;SDS011;21379;50.962;6.960;2023-02-19T04:18:21;10.13;;;4.95;;
35245;SDS011;21379;50.962;6.960;2023-02-19T04:20:50;7.88;;;4.22;;
35245;SDS011;21379;50.962;6.960;2023-02-19T04:23:18;19.05;;;4.57;;
35245;SDS011;21379;50.962;6.960;2023-02-19T04:25:49;16.55;;;4.30;;
35245;SDS011;21379;50.962;6.960;2023-02-19T04:28:19;11.98;;;5.50;;
35245;SDS011;21379;50.962;6.960;2023-02-19T04:30:46;11.68;;;5.35;;
35245;SDS011;21379;50.962;6.960;2023-02-19T04:33:13;13.77;;;6.30;;
35245;SDS011;21379;50.962;6.960;2023-02-19T04:35:41;18.85;;;4.93;;
35245;SDS011;21379;50.962;6.960;2023-02-19T04:38:08;16.00;;;5.22;;
35245;SDS011;21379;50.962;6.960;2023-02-19T04:40:36;13.38;;;5.72;;
35245;SDS011;21379;50.962;6.960;2023-02-19T04:43:03;11.40;;;5.28;;
35245;SDS011;21379;50.962;6.960;2023-02-19T04:45:29;13.43;;;5.80;;
35245;SDS011;21379;50.962;6.960;2023-02-19T04:47:56;18.65;;;5.07;;
35245;SDS011;21379;50.962;6.960;2023-02-19T04:50:23;15.18;;;5.55;;
35245;SDS011;21379;50.962;6.960;2023-02-19T04:52:51;8.13;;;4.88;;
35245;SDS011;21379;50.962;6.960;2023-02-19T04:55:18;11.80;;;6.40;;
35245;SDS011;21379;50.962;6.960;2023-02-19T04:57:45;14.95;;;6.65;;
35245;SDS011;21379;50.962;6.960;2023-02-19T05:00:12;17.58;;;6.80;;
35245;SDS011;21379;50.962;6.960;2023-02-19T05:02:39;12.02;;;5.43;;
35245;SDS011;21379;50.962;6.960;2023-02-19T05:05:06;16.90;;;7.45;;
35245;SDS011;21379;50.962;6.960;2023-02-19T05:07:33;12.20;;;6.53;;
35245;SDS011;21379;50.962;6.960;2023-02-19T05:10:02;12.88;;;6.68;;
35245;SDS011;21379;50.962;6.960;2023-02-19T05:12:29;17.52;;;7.47;;
35245;SDS011;21379;50.962;6.960;2023-02-19T05:14:56;14.48;;;6.25;;
35245;SDS011;21379;50.962;6.960;2023-02-19T05:17:23;14.73;;;6.72;;
35245;SDS011;21379;50.962;6.960;2023-02-19T05:19:49;15.82;;;7.68;;
35245;SDS011;21379;50.962;6.960;2023-02-19T05:22:16;21.98;;;9.05;;
35245;SDS011;21379;50.962;6.960;2023-02-19T05:24:43;14.38;;;7.50;;
35245;SDS011;21379;50.962;6.960;2023-02-19T05:27:11;19.00;;;8.20;;
35245;SDS011;21379;50.962;6.960;2023-02-19T05:29:38;16.10;;;7.80;;
35245;SDS011;21379;50.962;6.960;2023-02-19T05:32:05;25.77;;;7.95;;
35245;SDS011;21379;50.962;6.960;2023-02-19T05:34:31;24.83;;;10.80;;
35245;SDS011;21379;50.962;6.960;2023-02-19T05:36:58;19.00;;;8.70;;
35245;SDS011;21379;50.962;6.960;2023-02-19T05:39:25;31.98;;;7.70;;
35245;SDS011;21379;50.962;6.960;2023-02-19T05:41:52;19.70;;;8.18;;
35245;SDS011;21379;50.962;6.960;2023-02-19T05:44:20;19.80;;;8.65;;
35245;SDS011;21379;50.962;6.960;2023-02-19T05:46:47;21.85;;;8.80;;
35245;SDS011;21379;50.962;6.960;2023-02-19T05:49:13;19.48;;;9.35;;
35245;SDS011;21379;50.962;6.960;2023-02-19T05:51:40;20.15;;;8.00;;
35245;SDS011;21379;50.962;6.960;2023-02-19T05:54:07;15.77;;;8.02;;
35245;SDS011;21379;50.962;6.960;2023-02-19T05:56:34;20.10;;;8.13;;
35245;SDS011;21379;50.962;6.960;2023-02-19T05:59:03;21.45;;;9.50;;
35245;SDS011;21379;50.962;6.960;2023-02-19T06:01:33;23.77;;;9.32;;
35245;SDS011;21379;50.962;6.960;2023-02-19T06:04:00;26.13;;;8.95;;
35245;SDS011;21379;50.962;6.960;2023-02-19T06:06:27;25.45;;;10.95;;
35245;SDS011;21379;50.962;6.960;2023-02-19T06:08:54;26.98;;;12.18;;
35245;SDS011;21379;50.962;6.960;2023-02-19T06:11:21;25.38;;;10.43;;
35245;SDS011;21379;50.962;6.960;2023-02-19T06:13:48;26.77;;;12.82;;
35245;SDS011;21379;50.962;6.960;2023-02-19T06:16:15;22.98;;;12.45;;
35245;SDS011;21379;50.962;6.960;2023-02-19T06:18:44;23.98;;;11.88;;
35245;SDS011;21379;50.962;6.960;2023-02-19T06:21:11;27.92;;;11.25;;
35245;SDS011;21379;50.962;6.960;2023-02-19T06:23:39;31.15;;;13.40;;
35245;SDS011;21379;50.962;6.960;2023-02-19T06:26:06;26.92;;;11.35;;
35245;SDS011;21379;50.962;6.960;2023-02-19T06:28:34;29.88;;;12.82;;
35245;SDS011;21379;50.962;6.960;2023-02-19T06:31:01;31.60;;;10.73;;
35245;SDS011;21379;50.962;6.960;2023-02-19T06:33:28;32.45;;;12.90;;
35245;SDS011;21379;50.962;6.960;2023-02-19T06:35:58;25.13;;;13.82;;
35245;SDS011;21379;50.962;6.960;2023-02-19T06:38:25;33.15;;;12.35;;
35245;SDS011;21379;50.962;6.960;2023-02-19T06:40:52;25.88;;;11.82;;
35245;SDS011;21379;50.962;6.960;2023-02-19T06:43:19;31.40;;;11.65;;
35245;SDS011;21379;50.962;6.960;2023-02-19T06:45:46;20.98;;;9.52;;
35245;SDS011;21379;50.962;6.960;2023-02-19T06:48:13;26.02;;;11.60;;
35245;SDS011;21379;50.962;6.960;2023-02-19T06:50:39;28.83;;;11.15;;
35245;SDS011;21379;50.962;6.960;2023-02-19T06:53:08;26.45;;;8.90;;
35245;SDS011;21379;50.962;6.960;2023-02-19T06:55:35;38.35;;;11.20;;
35245;SDS011;21379;50.962;6.960;2023-02-19T06:58:04;26.25;;;10.65;;
35245;SDS011;21379;50.962;6.960;2023-02-19T07:00:32;27.38;;;9.10;;
35245;SDS011;21379;50.962;6.960;2023-02-19T07:02:59;25.20;;;9.63;;
35245;SDS011;21379;50.962;6.960;2023-02-19T07:05:26;26.45;;;10.57;;
35245;SDS011;21379;50.962;6.960;2023-02-19T07:07:53;28.95;;;10.20;;
35245;SDS011;21379;50.962;6.960;2023-02-19T07:10:21;20.50;;;9.40;;
35245;SDS011;21379;50.962;6.960;2023-02-19T07:12:48;33.55;;;9.85;;
35245;SDS011;21379;50.962;6.960;2023-02-19T07:15:15;23.35;;;9.25;;
35245;SDS011;21379;50.962;6.960;2023-02-19T07:17:42;25.67;;;11.38;;
35245;SDS011;21379;50.962;6.960;2023-02-19T07:20:09;19.02;;;8.68;;
35245;SDS011;21379;50.962;6.960;2023-02-19T07:22:36;18.95;;;8.15;;
35245;SDS011;21379;50.962;6.960;2023-02-19T07:25:03;30.77;;;9.40;;
35245;SDS011;21379;50.962;6.960;2023-02-19T07:27:31;30.88;;;9.25;;
35245;SDS011;21379;50.962;6.960;2023-02-19T07:29:58;21.45;;;9.07;;
35245;SDS011;21379;50.962;6.960;2023-02-19T07:32:24;29.10;;;9.52;;
35245;SDS011;21379;50.962;6.960;2023-02-19T07:34:51;22.27;;;8.70;;
35245;SDS011;21379;50.962;6.960;2023-02-19T07:37:18;19.98;;;7.60;;
35245;SDS011;21379;50.962;6.960;2023-02-19T07:39:45;23.00;;;8.60;;
35245;SDS011;21379;50.962;6.960;2023-02-19T07:42:12;20.40;;;7.88;;
35245;SDS011;21379;50.962;6.960;2023-02-19T07:44:40;19.10;;;9.30;;
35245;SDS011;21379;50.962;6.960;2023-02-19T07:47:07;17.10;;;8.75;;
35245;SDS011;21379;50.962;6.960;2023-02-19T07:49:33;21.30;;;7.28;;
35245;SDS011;21379;50.962;6.960;2023-02-19T07:52:00;15.65;;;6.97;;
35245;SDS011;21379;50.962;6.960;2023-02-19T07:54:27;20.95;;;9.18;;
35245;SDS011;21379;50.962;6.960;2023-02-19T07:56:54;28.13;;;8.88;;
35245;SDS011;21379;50.962;6.960;2023-02-19T07:59:21;27.27;;;9.45;;
35245;SDS011;21379;50.962;6.960;2023-02-19T08:01:49;21.33;;;7.75;;
35245;SDS011;21379;50.962;6.960;2023-02-19T08:04:33;17.92;;;7.53;;
35245;SDS011;21379;50.962;6.960;2023-02-19T08:07:00;33.85;;;8.85;;
35245;SDS011;21379;50.962;6.960;2023-02-19T08:09:29;20.77;;;8.18;;
35245;SDS011;21379;50.962;6.960;2023-02-19T08:11:56;15.20;;;8.88;;
35245;SDS011;21379;50.962;6.960;2023-02-19T08:14:40;23.80;;;8.05;;
35245;SDS011;21379;50.962;6.960;2023-02-19T08:17:08;27.40;;;7.78;;
35245;SDS011;21379;50.962;6.960;2023-02-19T08:19:35;22.55;;;8.07;;
35245;SDS011;21379;50.962;6.960;2023-02-19T08:22:02;24.35;;;9.00;;
35245;SDS011;21379;50.962;6.960;2023-02-19T08:24:29;27.13;;;10.02;;
35245;SDS011;21379;50.962;6.960;2023-02-19T08:26:57;20.48;;;8.15;;
35245;SDS011;21379;50.962;6.960;2023-02-19T08:29:24;16.63;;;8.38;;
35245;SDS011;21379;50.962;6.960;2023-02-19T08:31:51;20.85;;;7.30;;
35245;SDS011;21379;50.962;6.960;2023-02-19T08:34:20;20.67;;;9.85;;
35245;SDS011;21379;50.962;6.960;2023-02-19T08:36:46;23.58;;;7.95;;
35245;SDS011;21379;50.962;6.960;2023-02-19T08:39:13;33.22;;;9.85;;
35245;SDS011;21379;50.962;6.960;2023-02-19T08:41:40;17.90;;;7.82;;
35245;SDS011;21379;50.962;6.960;2023-02-19T08:44:07;28.23;;;7.63;;
35245;SDS011;21379;50.962;6.960;2023-02-19T08:46:34;22.25;;;7.28;;
35245;SDS011;21379;50.962;6.960;2023-02-19T08:49:00;30.13;;;8.55;;
35245;SDS011;21379;50.962;6.960;2023-02-19T08:51:29;27.55;;;10.43;;
35245;SDS011;21379;50.962;6.960;2023-02-19T08:53:55;15.38;;;6.97;;
35245;SDS011;21379;50.962;6.960;2023-02-19T08:56:22;13.77;;;7.13;;
35245;SDS011;21379;50.962;6.960;2023-02-19T08:58:49;16.80;;;7.25;;
35245;SDS011;21379;50.962;6.960;2023-02-19T09:01:16;26.15;;;8.52;;
35245;SDS011;21379;50.962;6.960;2023-02-19T09:03:43;20.23;;;9.05;;
35245;SDS011;21379;50.962;6.960;2023-02-19T09:06:12;18.85;;;9.02;;
35245;SDS011;21379;50.962;6.960;2023-02-19T09:08:42;33.33;;;8.77;;
35245;SDS011;21379;50.962;6.960;2023-02-19T09:11:09;32.03;;;10.30;;
35245;SDS011;21379;50.962;6.960;2023-02-19T09:13:36;33.03;;;9.77;;
35245;SDS011;21379;50.962;6.960;2023-02-19T09:16:02;21.10;;;8.98;;
35245;SDS011;21379;50.962;6.960;2023-02-19T09:18:30;20.90;;;8.15;;
35245;SDS011;21379;50.962;6.960;2023-02-19T09:20:58;28.95;;;9.45;;
35245;SDS011;21379;50.962;6.960;2023-02-19T09:23:25;26.10;;;8.50;;
35245;SDS011;21379;50.962;6.960;2023-02-19T09:25:56;23.85;;;8.80;;
35245;SDS011;21379;50.962;6.960;2023-02-19T09:28:24;16.83;;;6.57;;
35245;SDS011;21379;50.962;6.960;2023-02-19T09:30:51;18.63;;;7.82;;
35245;SDS011;21379;50.962;6.960;2023-02-19T09:33:18;14.57;;;6.75;;
35245;SDS011;21379;50.962;6.960;2023-02-19T09:35:45;20.48;;;7.85;;
35245;SDS011;21379;50.962;6.960;2023-02-19T09:38:12;19.60;;;7.30;;
35245;SDS011;21379;50.962;6.960;2023-02-19T09:40:38;16.00;;;5.82;;
35245;SDS011;21379;50.962;6.960;2023-02-19T09:43:07;25.40;;;7.88;;
35245;SDS011;21379;50.962;6.960;2023-02-19T09:45:36;16.38;;;5.72;;
35245;SDS011;21379;50.962;6.960;2023-02-19T09:48:05;12.00;;;5.68;;
35245;SDS011;21379;50.962;6.960;2023-02-19T09:50:35;27.90;;;6.63;;
35245;SDS011;21379;50.962;6.960;2023-02-19T09:53:06;18.30;;;5.85;;
35245;SDS011;21379;50.962;6.960;2023-02-19T09:55:40;14.07;;;6.40;;
35245;SDS011;21379;50.962;6.960;2023-02-19T09:58:16;17.60;;;7.53;;
35245;SDS011;21379;50.962;6.960;2023-02-19T10:00:48;21.38;;;7.03;;
35245;SDS011;21379;50.962;6.960;2023-02-19T10:03:20;14.70;;;6.47;;
35245;SDS011;21379;50.962;6.960;2023-02-19T10:05:54;15.80;;;4.43;;
35245;SDS011;21379;50.962;6.960;2023-02-19T10:08:22;22.83;;;6.90;;
35245;SDS011;21379;50.962;6.960;2023-02-19T10:10:50;8.40;;;4.93;;
35245;SDS011;21379;50.962;6.960;2023-02-19T10:13:20;21.92;;;6.22;;
35245;SDS011;21379;50.962;6.960;2023-02-19T10:15:49;11.45;;;5.03;;
35245;SDS011;21379;50.962;6.960;2023-02-19T10:18:18;12.60;;;6.13;;
35245;SDS011;21379;50.962;6.960;2023-02-19T10:20:48;19.98;;;7.18;;
35245;SDS011;21379;50.962;6.960;2023-02-19T10:23:17;19.10;;;6.25;;
35245;SDS011;21379;50.962;6.960;2023-02-19T10:25:45;21.70;;;7.15;;
35245;SDS011;21379;50.962;6.960;2023-02-19T10:28:16;16.98;;;6.10;;
35245;SDS011;21379;50.962;6.960;2023-02-19T10:30:49;23.40;;;7.38;;
35245;SDS011;21379;50.962;6.960;2023-02-19T10:33:18;26.38;;;8.07;;
35245;SDS011;21379;50.962;6.960;2023-02-19T10:35:52;14.95;;;5.63;;
35245;SDS011;21379;50.962;6.960;2023-02-19T10:38:21;12.35;;;6.30;;
35245;SDS011;21379;50.962;6.960;2023-02-19T10:40:56;20.52;;;7.38;;
35245;SDS011;21379;50.962;6.960;2023-02-19T10:43:28;17.90;;;6.70;;
35245;SDS011;21379;50.962;6.960;2023-02-19T10:46:00;17.30;;;6.53;;
35245;SDS011;21379;50.962;6.960;2023-02-19T10:48:30;10.98;;;6.10;;
35245;SDS011;21379;50.962;6.960;2023-02-19T10:51:00;14.18;;;6.47;;
35245;SDS011;21379;50.962;6.960;2023-02-19T10:53:40;19.08;;;7.35;;
35245;SDS011;21379;50.962;6.960;2023-02-19T10:56:09;13.52;;;6.28;;
35245;SDS011;21379;50.962;6.960;2023-02-19T10:58:39;14.02;;;6.32;;
35245;SDS011;21379;50.962;6.960;2023-02-19T11:01:14;20.80;;;6.45;;
35245;SDS011;21379;50.962;6.960;2023-02-19T11:03:44;13.10;;;6.55;;
35245;SDS011;21379;50.962;6.960;2023-02-19T11:06:12;22.77;;;6.10;;
35245;SDS011;21379;50.962;6.960;2023-02-19T11:08:44;15.73;;;6.30;;
35245;SDS011;21379;50.962;6.960;2023-02-19T11:11:21;21.47;;;5.10;;
35245;SDS011;21379;50.962;6.960;2023-02-19T11:13:59;14.40;;;6.05;;
35245;SDS011;21379;50.962;6.960;2023-02-19T11:16:38;17.35;;;6.93;;
35245;SDS011;21379;50.962;6.960;2023-02-19T11:19:19;22.15;;;7.53;;
35245;SDS011;21379;50.962;6.960;2023-02-19T11:21:49;17.92;;;6.05;;
35245;SDS011;21379;50.962;6.960;2023-02-19T11:24:20;17.17;;;6.50;;
35245;SDS011;21379;50.962;6.960;2023-02-19T11:26:51;18.08;;;8.07;;
35245;SDS011;21379;50.962;6.960;2023-02-19T11:29:19;17.60;;;6.30;;
35245;SDS011;21379;50.962;6.960;2023-02-19T11:31:49;12.43;;;6.22;;
35245;SDS011;21379;50.962;6.960;2023-02-19T11:34:26;14.57;;;6.20;;
35245;SDS011;21379;50.962;6.960;2023-02-19T11:37:07;12.50;;;4.47;;
35245;SDS011;21379;50.962;6.960;2023-02-19T11:39:36;20.83;;;4.85;;
35245;SDS011;21379;50.962;6.960;2023-02-19T11:48:03;10.05;;;3.83;;
35245;SDS011;21379;50.962;6.960;2023-02-19T11:50:50;7.53;;;3.88;;
35245;SDS011;21379;50.962;6.960;2023-02-19T11:53:24;5.80;;;3.03;;
35245;SDS011;21379;50.962;6.960;2023-02-19T11:55:59;8.55;;;3.38;;
35245;SDS011;21379;50.962;6.960;2023-02-19T11:58:49;6.82;;;4.78;;
35245;SDS011;21379;50.962;6.960;2023-02-19T12:01:27;21.13;;;3.95;;
35245;SDS011;21379;50.962;6.960;2023-02-19T12:04:26;12.80;;;4.03;;
35245;SDS011;21379;50.962;6.960;2023-02-19T12:07:15;8.57;;;3.58;;
35245;SDS011;21379;50.962;6.960;2023-02-19T12:12:30;9.15;;;4.40;;
35245;SDS011;21379;50.962;6.960;2023-02-19T12:17:58;13.40;;;4.45;;
35245;SDS011;21379;50.962;6.960;2023-02-19T12:20:46;11.63;;;3.90;;
35245;SDS011;21379;50.962;6.960;2023-02-19T12:23:32;4.38;;;2.97;;
35245;SDS011;21379;50.962;6.960;2023-02-19T12:26:19;12.15;;;3.83;;
35245;SDS011;21379;50.962;6.960;2023-02-19T12:28:58;9.43;;;3.55;;
35245;SDS011;21379;50.962;6.960;2023-02-19T12:34:57;6.18;;;3.38;;
35245;SDS011;21379;50.962;6.960;2023-02-19T12:37:43;12.65;;;4.75;;
35245;SDS011;21379;50.962;6.960;2023-02-19T12:40:22;7.38;;;3.72;;
35245;SDS011;21379;50.962;6.960;2023-02-19T12:43:00;9.32;;;3.35;;
35245;SDS011;21379;50.962;6.960;2023-02-19T12:45:36;10.10;;;3.30;;
35245;SDS011;21379;50.962;6.960;2023-02-19T12:48:11;9.07;;;2.95;;
35245;SDS011;21379;50.962;6.960;2023-02-19T12:50:43;12.13;;;2.83;;
35245;SDS011;21379;50.962;6.960;2023-02-19T12:53:19;10.82;;;2.38;;
35245;SDS011;21379;50.962;6.960;2023-02-19T12:55:54;8.38;;;2.97;;
35245;SDS011;21379;50.962;6.960;2023-02-19T12:58:25;5.20;;;2.97;;
35245;SDS011;21379;50.962;6.960;2023-02-19T13:00:55;7.35;;;3.13;;
35245;SDS011;21379;50.962;6.960;2023-02-19T13:03:26;10.95;;;3.13;;
35245;SDS011;21379;50.962;6.960;2023-02-19T13:05:56;4.43;;;2.30;;
35245;SDS011;21379;50.962;6.960;2023-02-19T13:08:30;7.70;;;2.65;;
35245;SDS011;21379;50.962;6.960;2023-02-19T13:11:04;4.68;;;2.80;;
35245;SDS011;21379;50.962;6.960;2023-02-19T13:13:36;10.27;;;2.80;;
35245;SDS011;21379;50.962;6.960;2023-02-19T13:16:08;5.78;;;2.28;;
35245;SDS011;21379;50.962;6.960;2023-02-19T13:18:40;7.13;;;3.33;;
35245;SDS011;21379;50.962;6.960;2023-02-19T13:21:09;6.20;;;3.08;;
35245;SDS011;21379;50.962;6.960;2023-02-19T13:23:59;5.88;;;3.25;;
35245;SDS011;21379;50.962;6.960;2023-02-19T13:26:35;6.15;;;3.60;;
35245;SDS011;21379;50.962;6.960;2023-02-19T13:29:15;7.82;;;4.30;;
35245;SDS011;21379;50.962;6.960;2023-02-19T13:31:59;11.35;;;4.00;;
35245;SDS011;21379;50.962;6.960;2023-02-19T13:34:46;7.38;;;3.25;;
35245;SDS011;21379;50.962;6.960;2023-02-19T13:37:30;8.93;;;2.72;;
35245;SDS011;21379;50.962;6.960;2023-02-19T13:40:03;4.95;;;2.15;;
35245;SDS011;21379;50.962;6.960;2023-02-19T13:42:43;5.35;;;2.40;;
35245;SDS011;21379;50.962;6.960;2023-02-19T13:45:20;2.60;;;1.88;;
35245;SDS011;21379;50.962;6.960;2023-02-19T13:47:58;4.22;;;2.35;;
35245;SDS011;21379;50.962;6.960;2023-02-19T13:50:29;10.85;;;2.40;;
35245;SDS011;21379;50.962;6.960;2023-02-19T13:52:58;2.80;;;1.98;;
35245;SDS011;21379;50.962;6.960;2023-02-19T14:01:23;3.50;;;1.15;;
35245;SDS011;21379;50.962;6.960;2023-02-19T14:04:46;3.28;;;1.95;;
35245;SDS011;21379;50.962;6.960;2023-02-19T14:07:20;6.68;;;2.42;;
35245;SDS011;21379;50.962;6.960;2023-02-19T14:10:02;3.38;;;2.05;;
35245;SDS011;21379;50.962;6.960;2023-02-19T14:12:30;9.15;;;3.08;;
35245;SDS011;21379;50.962;6.960;2023-02-19T14:17:59;6.38;;;3.70;;
35245;SDS011;21379;50.962;6.960;2023-02-19T14:20:40;8.73;;;3.00;;
35245;SDS011;21379;50.962;6.960;2023-02-19T14:23:21;5.75;;;3.28;;
35245;SDS011;21379;50.962;6.960;2023-02-19T14:25:58;9.43;;;4.57;;
35245;SDS011;21379;50.962;6.960;2023-02-19T14:28:28;8.05;;;4.20;;
35245;SDS011;21379;50.962;6.960;2023-02-19T14:33:59;9.95;;;5.30;;
35245;SDS011;21379;50.962;6.960;2023-02-19T14:36:38;6.05;;;3.72;;
35245;SDS011;21379;50.962;6.960;2023-02-19T14:39:13;9.80;;;3.95;;
35245;SDS011;21379;50.962;6.960;2023-02-19T14:41:43;6.15;;;3.25;;
35245;SDS011;21379;50.962;6.960;2023-02-19T14:44:14;7.47;;;3.65;;
35245;SDS011;21379;50.962;6.960;2023-02-19T14:46:49;6.90;;;4.57;;
35245;SDS011;21379;50.962;6.960;2023-02-19T14:49:20;14.15;;;4.57;;
35245;SDS011;21379;50.962;6.960;2023-02-19T14:51:55;10.52;;;4.13;;
35245;SDS011;21379;50.962;6.960;2023-02-19T14:54:30;8.15;;;3.70;;
35245;SDS011;21379;50.962;6.960;2023-02-19T14:57:01;10.45;;;5.45;;
35245;SDS011;21379;50.962;6.960;2023-02-19T14:59:30;12.52;;;5.35;;
35245;SDS011;21379;50.962;6.960;2023-02-19T15:01:58;9.32;;;4.80;;
35245;SDS011;21379;50.962;6.960;2023-02-19T15:04:26;6.63;;;4.43;;
35245;SDS011;21379;50.962;6.960;2023-02-19T15:06:56;13.38;;;6.63;;
35245;SDS011;21379;50.962;6.960;2023-02-19T15:09:29;9.75;;;5.72;;
35245;SDS011;21379;50.962;6.960;2023-02-19T15:11:58;15.93;;;5.35;;
35245;SDS011;21379;50.962;6.960;2023-02-19T15:14:27;13.00;;;5.53;;
35245;SDS011;21379;50.962;6.960;2023-02-19T15:16:56;16.42;;;6.78;;
35245;SDS011;21379;50.962;6.960;2023-02-19T15:19:26;13.20;;;6.32;;
35245;SDS011;21379;50.962;6.960;2023-02-19T15:21:54;18.17;;;6.55;;
35245;SDS011;21379;50.962;6.960;2023-02-19T15:24:22;13.82;;;6.15;;
35245;SDS011;21379;50.962;6.960;2023-02-19T15:26:50;16.70;;;7.40;;
35245;SDS011;21379;50.962;6.960;2023-02-19T15:29:19;15.48;;;7.35;;
35245;SDS011;21379;50.962;6.960;2023-02-19T15:31:49;10.95;;;6.63;;